Time;durP1;ratioP1;P1;durP2;ratioP2;P2;SDS_P1;SDS_P2;PMS_P1;PMS_P2;Temp;Humidity;BMP_temperature;BMP_pressure;BME280_temperature;BME280_humidity;BME280_pressure;Samples;Min_cycle;Max_cycle;Signal;HPM_P1;HPM_P2
2023/01/04 00:01:13;;;;;;;30.25;19.65;;;;;;;8.33;100.00;101725.72;5019782;28;20038;-69
2023/01/04 00:03:39;;;;;;;27.80;17.55;;;;;;;8.41;100.00;101728.81;5018968;28;20033;-68
2023/01/04 00:06:06;;;;;;;28.15;16.90;;;;;;;8.43;100.00;101728.72;5021928;28;20049;-69
2023/01/04 00:08:32;;;;;;;29.48;17.73;;;;;;;8.37;100.00;101718.38;4998332;28;20056;-69
2023/01/04 00:11:04;;;;;;;28.70;17.83;;;;;;;8.43;100.00;101721.56;5016261;28;20526;-68
2023/01/04 00:13:30;;;;;;;25.42;16.73;;;;;;;8.42;100.00;101717.16;5023284;28;20415;-69
2023/01/04 00:15:56;;;;;;;26.50;18.20;;;;;;;8.30;100.00;101698.28;5015342;28;20030;-67
2023/01/04 00:18:21;;;;;;;24.75;16.90;;;;;;;8.46;100.00;101720.53;5017657;28;20022;-70
2023/01/04 00:20:47;;;;;;;27.05;17.55;;;;;;;8.32;100.00;101705.25;5001424;28;20779;-69
2023/01/04 00:23:12;;;;;;;24.80;15.32;;;;;;;8.44;100.00;101730.44;5021132;28;20041;-68
2023/01/04 00:25:38;;;;;;;25.52;16.05;;;;;;;8.32;100.00;101732.00;5014239;28;20025;-69
2023/01/04 00:28:04;;;;;;;24.35;15.55;;;;;;;8.35;100.00;101722.97;5006896;28;20441;-69
2023/01/04 00:30:29;;;;;;;24.52;16.00;;;;;;;8.39;100.00;101724.50;5002419;28;20029;-69
2023/01/04 00:32:56;;;;;;;26.23;16.90;;;;;;;8.46;100.00;101728.56;5014291;28;22540;-69
2023/01/04 00:35:22;;;;;;;26.10;15.85;;;;;;;8.47;100.00;101728.47;5002262;28;20510;-69
2023/01/04 00:37:47;;;;;;;21.65;13.90;;;;;;;8.43;100.00;101736.75;5017354;28;20021;-67
2023/01/04 00:40:13;;;;;;;23.08;14.57;;;;;;;8.35;100.00;101733.66;5014235;28;20037;-69
2023/01/04 00:42:38;;;;;;;23.27;15.45;;;;;;;8.28;100.00;101714.41;5017451;28;20033;-68
2023/01/04 00:45:04;;;;;;;23.33;14.70;;;;;;;8.41;100.00;101736.84;5018331;28;20030;-68
2023/01/04 00:47:29;;;;;;;23.10;14.88;;;;;;;8.38;100.00;101736.13;5022615;28;20022;-69
2023/01/04 00:49:55;;;;;;;21.73;14.25;;;;;;;8.36;100.00;101733.56;5017201;28;20028;-70
2023/01/04 00:52:20;;;;;;;21.85;14.07;;;;;;;8.34;100.00;101743.47;4997430;28;20125;-69
2023/01/04 00:54:46;;;;;;;24.83;14.77;;;;;;;8.10;100.00;101709.19;5015647;28;20034;-70
2023/01/04 00:57:11;;;;;;;23.38;14.65;;;;;;;8.12;100.00;101737.56;5019942;28;20021;-69
2023/01/04 00:59:36;;;;;;;19.48;13.70;;;;;;;8.06;100.00;101751.25;5020192;28;20088;-69
2023/01/04 01:02:02;;;;;;;23.80;14.07;;;;;;;8.21;100.00;101752.22;5022747;28;20037;-68
2023/01/04 01:04:27;;;;;;;21.23;13.25;;;;;;;8.13;100.00;101744.63;5014287;28;20438;-68
2023/01/04 01:06:53;;;;;;;18.98;13.23;;;;;;;8.07;100.00;101746.78;5018868;28;20040;-70
2023/01/04 01:09:21;;;;;;;20.63;14.10;;;;;;;8.06;100.00;101751.25;5005224;28;20087;-69
2023/01/04 01:11:47;;;;;;;22.38;13.82;;;;;;;8.10;100.00;101747.44;5020764;28;20404;-69
2023/01/04 01:14:18;;;;;;;24.13;13.75;;;;;;;8.08;100.00;101745.81;5024579;28;20072;-69
2023/01/04 01:16:44;;;;;;;19.70;13.25;;;;;;;8.12;100.00;101747.38;5025489;28;20502;-70
2023/01/04 01:19:10;;;;;;;22.02;13.23;;;;;;;8.18;100.00;101753.25;5026213;28;20033;-69
2023/01/04 01:21:36;;;;;;;21.80;14.02;;;;;;;8.02;100.00;101743.47;5013386;28;20040;-69
2023/01/04 01:24:02;;;;;;;20.48;14.77;;;;;;;7.92;100.00;101755.63;5020015;28;20030;-69
2023/01/04 01:26:28;;;;;;;20.35;14.25;;;;;;;7.94;100.00;101769.75;5017201;28;20121;-70
2023/01/04 01:28:54;;;;;;;23.63;15.18;;;;;;;7.97;100.00;101774.94;5022649;28;20125;-69
2023/01/04 01:31:25;;;;;;;23.25;14.98;;;;;;;7.77;100.00;101740.44;5015939;28;20043;-68
2023/01/04 01:33:53;;;;;;;23.70;15.57;;;;;;;7.87;100.00;101757.69;5013329;28;20049;-69
2023/01/04 01:36:19;;;;;;;23.77;14.95;;;;;;;7.87;100.00;101765.69;5019088;28;20112;-68
2023/01/04 01:38:45;;;;;;;23.17;15.57;;;;;;;8.05;100.00;101784.28;5014915;28;20517;-69
2023/01/04 01:41:24;;;;;;;23.42;14.13;;;;;;;8.03;100.00;101777.28;5016979;28;20037;-69
2023/01/04 01:44:22;;;;;;;20.90;14.57;;;;;;;8.00;100.00;101780.13;5018700;28;20121;-69
2023/01/04 01:46:51;;;;;;;21.85;14.52;;;;;;;7.89;100.00;101753.09;5020214;28;20550;-69
2023/01/04 01:49:34;;;;;;;22.70;15.15;;;;;;;7.80;100.00;101762.47;5017260;28;20395;-69
2023/01/04 01:52:07;;;;;;;23.52;14.82;;;;;;;7.82;100.00;101771.28;5020672;28;20142;-68
2023/01/04 01:54:38;;;;;;;25.42;16.75;;;;;;;7.94;100.00;101770.63;5018632;28;20026;-68
2023/01/04 01:57:06;;;;;;;23.58;14.23;;;;;;;7.83;100.00;101754.31;5010076;28;20432;-69
2023/01/04 01:59:35;;;;;;;22.23;13.95;;;;;;;7.85;100.00;101770.25;5010982;28;20427;-69
2023/01/04 02:02:01;;;;;;;22.60;14.80;;;;;;;7.80;100.00;101775.00;5022138;28;20175;-69
2023/01/04 02:04:27;;;;;;;25.33;14.52;;;;;;;7.78;100.00;101774.19;5011530;28;20554;-69
2023/01/04 02:06:57;;;;;;;21.65;15.05;;;;;;;7.66;100.00;101764.16;4999269;28;20041;-69
2023/01/04 02:09:22;;;;;;;24.25;16.00;;;;;;;7.51;100.00;101741.81;5023189;28;20057;-69
2023/01/04 02:11:48;;;;;;;21.05;14.57;;;;;;;7.67;100.00;101763.22;5015720;28;20064;-69
2023/01/04 02:14:27;;;;;;;23.92;14.73;;;;;;;7.72;100.00;101758.50;5022450;28;20100;-68
2023/01/04 02:17:06;;;;;;;25.13;15.30;;;;;;;7.70;100.00;101755.06;5018818;28;20026;-69
2023/01/04 02:19:43;;;;;;;23.75;14.88;;;;;;;7.66;100.00;101761.50;5019798;28;20040;-70
2023/01/04 02:22:39;;;;;;;24.67;15.75;;;;;;;7.60;100.00;101760.00;5023527;28;20040;-69
2023/01/04 02:25:42;;;;;;;23.88;14.63;;;;;;;7.41;100.00;101767.25;5018208;28;20113;-68
2023/01/04 02:28:33;;;;;;;24.40;15.00;;;;;;;7.30;100.00;101768.75;5017585;28;20030;-69
2023/01/04 02:31:30;;;;;;;23.88;15.50;;;;;;;7.30;100.00;101771.41;5024696;28;20397;-70
2023/01/04 02:34:23;;;;;;;26.15;16.17;;;;;;;7.28;100.00;101776.00;5016218;28;20534;-69
2023/01/04 02:37:18;;;;;;;22.20;14.35;;;;;;;7.26;100.00;101769.84;5015322;28;20026;-69
2023/01/04 02:40:12;;;;;;;21.67;14.90;;;;;;;7.04;100.00;101752.25;4985214;28;20041;-70
2023/01/04 02:45:52;;;;;;;22.02;14.60;;;;;;;7.00;100.00;101773.84;5016912;28;19939;-69
2023/01/04 02:51:01;;;;;;;25.13;14.80;;;;;;;6.81;100.00;101749.88;5023462;28;20064;-69
2023/01/04 02:53:40;;;;;;;24.08;14.90;;;;;;;6.88;100.00;101770.00;5021435;28;20038;-69
2023/01/04 02:56:34;;;;;;;23.10;14.32;;;;;;;6.91;100.00;101772.47;5020856;28;20029;-69
2023/01/04 02:59:27;;;;;;;25.20;15.88;;;;;;;6.82;100.00;101772.97;5020585;28;20124;-69
2023/01/04 03:08:06;;;;;;;21.77;14.00;;;;;;;6.59;100.00;101765.22;5015826;28;20060;-67
2023/01/04 03:10:40;;;;;;;20.52;13.70;;;;;;;6.49;100.00;101768.41;5020010;28;20022;-68
2023/01/04 03:13:09;;;;;;;22.63;13.63;;;;;;;6.39;100.00;101759.97;5016141;28;20371;-68
2023/01/04 03:15:38;;;;;;;23.40;14.90;;;;;;;6.15;100.00;101747.81;5016274;28;20071;-66
2023/01/04 03:18:15;;;;;;;20.63;13.32;;;;;;;6.24;100.00;101762.50;4995475;28;20029;-69
2023/01/04 03:20:43;;;;;;;23.65;14.60;;;;;;;6.12;100.00;101739.97;4999386;28;20037;-68
2023/01/04 03:37:29;;;;;;;21.58;13.93;;;;;;;5.89;100.00;101758.81;5010485;28;20077;-69
2023/01/04 03:49:24;;;;;;;26.80;14.05;;;;;;;5.60;100.00;101734.38;5018380;28;20083;-69
2023/01/04 03:51:54;;;;;;;22.77;14.02;;;;;;;5.67;100.00;101757.16;4994116;28;20042;-69
2023/01/04 03:54:28;;;;;;;23.45;12.65;;;;;;;5.61;100.00;101760.09;5017879;28;20033;-69
2023/01/04 03:56:54;;;;;;;20.27;12.93;;;;;;;5.46;100.00;101747.47;5023486;28;20018;-68
2023/01/04 03:59:21;;;;;;;23.30;13.20;;;;;;;5.47;100.00;101767.81;4995937;28;20502;-68
2023/01/04 04:01:47;;;;;;;24.73;13.77;;;;;;;5.40;100.00;101766.34;5022338;28;20394;-69
2023/01/04 04:09:41;;;;;;;22.50;13.82;;;;;;;5.16;100.00;101760.28;5020529;28;20037;-68
2023/01/04 04:12:06;;;;;;;22.88;13.98;;;;;;;5.17;100.00;101778.00;5014084;28;20030;-69
2023/01/04 04:14:31;;;;;;;23.13;14.10;;;;;;;5.11;100.00;101777.38;5023136;28;20025;-68
2023/01/04 04:16:57;;;;;;;22.08;13.70;;;;;;;5.06;100.00;101774.91;5021077;28;20030;-68
2023/01/04 04:19:22;;;;;;;23.77;14.05;;;;;;;4.98;100.00;101763.72;5015859;28;20021;-71
2023/01/04 04:21:48;;;;;;;22.40;13.43;;;;;;;4.91;100.00;101769.38;5012963;28;20454;-69
2023/01/04 04:24:19;;;;;;;22.58;14.00;;;;;;;4.95;100.00;101771.84;5015607;28;20033;-69
2023/01/04 04:26:45;;;;;;;21.30;13.75;;;;;;;4.91;100.00;101756.94;5016446;28;20026;-67
2023/01/04 04:29:11;;;;;;;20.77;13.95;;;;;;;4.87;100.00;101757.13;5019810;28;20059;-68
2023/01/04 04:31:36;;;;;;;21.50;15.10;;;;;;;4.98;100.00;101779.69;5023527;28;20108;-68
2023/01/04 04:34:02;;;;;;;24.45;13.63;;;;;;;4.94;100.00;101779.88;5019503;28;20022;-69
2023/01/04 04:36:28;;;;;;;22.70;14.43;;;;;;;4.91;100.00;101780.88;5023049;28;20038;-69
2023/01/04 04:38:53;;;;;;;21.60;13.40;;;;;;;4.88;100.00;101785.44;5023790;28;20024;-68
2023/01/04 04:41:37;;;;;;;24.48;13.75;;;;;;;4.80;100.00;101793.72;5019945;28;20033;-69
2023/01/04 04:44:03;;;;;;;20.07;13.90;;;;;;;4.80;100.00;101800.84;5001401;28;20029;-70
2023/01/04 04:46:28;;;;;;;20.33;13.70;;;;;;;4.69;100.00;101793.31;5019661;28;20438;-70
2023/01/04 04:48:54;;;;;;;24.63;13.02;;;;;;;4.67;100.00;101797.78;5021290;28;20025;-69
2023/01/04 04:51:19;;;;;;;19.95;12.43;;;;;;;4.49;100.00;101775.47;5018010;28;20107;-70
2023/01/04 04:53:45;;;;;;;21.63;12.77;;;;;;;4.55;100.00;101788.53;5018258;28;20029;-70
2023/01/04 04:56:11;;;;;;;23.95;13.43;;;;;;;4.41;100.00;101776.72;5020438;28;20034;-68
2023/01/04 04:58:36;;;;;;;21.08;13.55;;;;;;;4.48;100.00;101797.66;5016695;28;20040;-70
2023/01/04 05:01:02;;;;;;;21.70;13.80;;;;;;;4.45;100.00;101800.44;5014497;28;20116;-70
2023/01/04 05:03:27;;;;;;;22.50;13.25;;;;;;;4.29;100.00;101780.72;5008831;28;20076;-70
2023/01/04 05:05:53;;;;;;;21.60;12.77;;;;;;;4.28;100.00;101783.44;5024425;28;20489;-70
2023/01/04 05:08:18;;;;;;;20.85;13.80;;;;;;;4.31;100.00;101807.22;5024183;28;20030;-69
2023/01/04 05:10:44;;;;;;;19.98;12.70;;;;;;;4.18;100.00;101795.34;5015721;28;20026;-69
2023/01/04 05:13:12;;;;;;;22.00;13.23;;;;;;;4.22;100.00;101810.22;5018696;28;20065;-69
2023/01/04 05:15:43;;;;;;;18.48;12.35;;;;;;;4.16;100.00;101808.66;5019545;28;20551;-69
2023/01/04 05:18:10;;;;;;;21.60;14.13;;;;;;;4.12;100.00;101812.38;5000201;28;20056;-69
2023/01/04 05:20:37;;;;;;;24.27;13.05;;;;;;;4.06;100.00;101809.94;5019519;28;20086;-69
2023/01/04 05:23:03;;;;;;;24.75;13.45;;;;;;;3.94;100.00;101801.56;5021433;28;20434;-68
2023/01/04 05:25:28;;;;;;;19.08;12.63;;;;;;;3.87;100.00;101798.28;5021262;28;20087;-69
2023/01/04 05:27:54;;;;;;;19.58;12.68;;;;;;;3.91;100.00;101815.84;5017376;28;20061;-68
2023/01/04 05:33:04;;;;;;;21.00;13.68;;;;;;;3.78;100.00;101803.06;5017471;28;20394;-69
2023/01/04 05:35:30;;;;;;;17.98;12.52;;;;;;;3.70;100.00;101795.38;5027170;28;20029;-69
2023/01/04 05:37:55;;;;;;;20.13;12.70;;;;;;;3.70;100.00;101787.41;5023527;28;20052;-70
2023/01/04 05:40:21;;;;;;;24.38;13.82;;;;;;;3.84;100.00;101813.47;5021408;28;20498;-69
2023/01/04 05:42:47;;;;;;;24.92;14.48;;;;;;;3.82;100.00;101799.38;5021730;28;20156;-69
2023/01/04 05:45:14;;;;;;;22.45;14.77;;;;;;;3.87;100.00;101803.56;5017526;28;20057;-70
2023/01/04 05:47:40;;;;;;;23.25;14.85;;;;;;;3.84;100.00;101794.88;5016189;28;20104;-70
2023/01/04 05:50:06;;;;;;;26.05;14.82;;;;;;;3.75;100.00;101787.25;4994860;28;20041;-69
2023/01/04 05:52:32;;;;;;;22.40;13.77;;;;;;;3.84;100.00;101803.69;4994299;28;20087;-69
2023/01/04 05:54:58;;;;;;;23.23;14.68;;;;;;;3.92;100.00;101806.06;5014781;28;20525;-70
2023/01/04 05:57:23;;;;;;;25.35;14.73;;;;;;;4.07;100.00;101800.19;5004593;28;20108;-68
2023/01/04 05:59:49;;;;;;;24.08;15.18;;;;;;;4.02;100.00;101791.53;5009941;28;20065;-69
2023/01/04 06:02:26;;;;;;;25.80;14.10;;;;;;;4.03;100.00;101809.22;5002359;28;20087;-69
2023/01/04 06:04:52;;;;;;;26.98;14.75;;;;;;;3.87;100.00;101803.56;5020211;28;20131;-69
2023/01/04 06:07:18;;;;;;;25.35;15.40;;;;;;;3.83;100.00;101812.56;5003399;28;20502;-70
2023/01/04 06:09:43;;;;;;;26.67;15.77;;;;;;;3.89;100.00;101812.34;5010345;28;20026;-69
2023/01/04 06:12:10;;;;;;;29.00;16.48;;;;;;;3.96;100.00;101812.97;5015877;28;20041;-68
2023/01/04 06:14:35;;;;;;;29.08;14.52;;;;;;;4.02;100.00;101821.59;5018628;28;20033;-69
2023/01/04 06:17:01;;;;;;;29.45;15.98;;;;;;;3.96;100.00;101815.63;5016445;28;20100;-69
2023/01/04 06:19:26;;;;;;;27.38;15.45;;;;;;;3.87;100.00;101821.31;5008225;28;20025;-69
2023/01/04 06:21:53;;;;;;;25.08;14.27;;;;;;;3.86;100.00;101832.81;5014188;28;20018;-69
2023/01/04 06:24:18;;;;;;;23.23;14.13;;;;;;;3.84;100.00;101832.03;5007872;28;20029;-69
2023/01/04 06:26:44;;;;;;;24.20;15.27;;;;;;;3.78;100.00;101840.22;5009299;28;20030;-70
2023/01/04 06:29:09;;;;;;;24.25;14.82;;;;;;;3.79;100.00;101848.13;5016083;28;20047;-69
2023/01/04 06:31:35;;;;;;;22.75;14.27;;;;;;;3.77;100.00;101839.34;5018029;28;20029;-69
2023/01/04 06:34:01;;;;;;;24.45;14.25;;;;;;;3.70;100.00;101842.25;5014979;28;20517;-69
2023/01/04 06:36:27;;;;;;;26.33;15.88;;;;;;;3.62;100.00;101849.63;4994422;28;20119;-69
2023/01/04 06:38:52;;;;;;;26.27;15.55;;;;;;;3.54;100.00;101841.94;5022203;28;20055;-69
2023/01/04 06:41:18;;;;;;;24.45;14.27;;;;;;;3.41;100.00;101827.38;5023745;28;20099;-69
2023/01/04 06:43:44;;;;;;;23.88;14.82;;;;;;;3.48;100.00;101857.22;4997382;28;20472;-68
2023/01/04 06:46:10;;;;;;;22.38;14.40;;;;;;;3.41;100.00;101850.34;5015657;28;20133;-68
2023/01/04 06:48:36;;;;;;;22.88;14.90;;;;;;;3.38;100.00;101851.34;5021767;28;20120;-69
2023/01/04 06:51:01;;;;;;;26.73;15.38;;;;;;;3.31;100.00;101839.22;5014490;28;20054;-70
2023/01/04 06:53:27;;;;;;;25.73;15.82;;;;;;;3.32;100.00;101845.38;5022707;28;20035;-69
2023/01/04 06:55:52;;;;;;;22.17;14.35;;;;;;;3.21;100.00;101826.31;5015147;28;20033;-69
2023/01/04 06:58:18;;;;;;;27.83;15.77;;;;;;;3.29;100.00;101848.97;5016790;28;20026;-70
2023/01/04 07:00:43;;;;;;;23.20;14.98;;;;;;;3.26;100.00;101846.44;5012167;28;20022;-69
2023/01/04 07:03:08;;;;;;;24.60;15.40;;;;;;;3.24;100.00;101853.59;5009095;28;20513;-69
2023/01/04 07:05:34;;;;;;;26.80;15.90;;;;;;;3.15;100.00;101842.41;5012098;28;20087;-69
2023/01/04 07:08:01;;;;;;;26.88;15.70;;;;;;;3.21;100.00;101847.50;5013399;28;20088;-70
2023/01/04 07:10:27;;;;;;;25.92;16.30;;;;;;;3.09;100.00;101834.69;5009949;28;20041;-68
2023/01/04 07:12:52;;;;;;;26.27;15.88;;;;;;;3.22;100.00;101865.16;5019423;28;20025;-69
2023/01/04 07:15:18;;;;;;;29.40;17.65;;;;;;;3.17;100.00;101840.59;5014444;28;20033;-70
2023/01/04 07:17:46;;;;;;;32.65;18.08;;;;;;;3.25;100.00;101860.63;5013684;28;20145;-69
2023/01/04 07:20:12;;;;;;;32.10;19.05;;;;;;;3.21;100.00;101845.75;5026704;28;20033;-70
2023/01/04 07:22:37;;;;;;;34.08;20.35;;;;;;;3.29;100.00;101854.28;5025787;28;20063;-69
2023/01/04 07:25:03;;;;;;;31.85;20.27;;;;;;;3.49;100.00;101848.31;4998483;28;20316;-70
2023/01/04 07:27:28;;;;;;;39.65;22.25;;;;;;;3.65;100.00;101858.31;5007540;28;20805;-70
2023/01/04 07:29:54;;;;;;;34.90;21.27;;;;;;;3.65;100.00;101860.13;5003847;28;20060;-70
2023/01/04 07:32:19;;;;;;;33.28;20.55;;;;;;;3.64;100.00;101853.94;5023387;28;20104;-70
2023/01/04 07:34:45;;;;;;;33.58;19.83;;;;;;;3.68;100.00;101849.41;5020425;28;20025;-70
2023/01/04 07:37:11;;;;;;;36.47;19.70;;;;;;;3.68;100.00;101849.41;5023683;28;20036;-71
2023/01/04 07:39:37;;;;;;;38.88;20.70;;;;;;;3.91;100.00;101865.38;5009176;28;20104;-70
2023/01/04 07:42:02;;;;;;;42.53;22.98;;;;;;;4.08;100.00;101853.25;5014050;28;20117;-70
2023/01/04 07:44:28;;;;;;;39.92;23.45;;;;;;;4.20;100.00;101860.72;5018379;28;20076;-69
2023/01/04 07:46:54;;;;;;;38.47;23.58;;;;;;;4.33;100.00;101858.50;5018384;28;20025;-70
2023/01/04 07:49:19;;;;;;;37.08;20.02;;;;;;;4.36;100.00;101856.56;5021465;28;20528;-70
2023/01/04 07:51:46;;;;;;;32.67;19.15;;;;;;;4.32;100.00;101846.16;5017027;28;20076;-70
2023/01/04 07:54:13;;;;;;;28.30;17.30;;;;;;;4.28;100.00;101844.50;5016863;28;20041;-70
2023/01/04 07:56:38;;;;;;;29.63;17.50;;;;;;;4.35;100.00;101846.00;4995605;28;20865;-69
2023/01/04 07:59:05;;;;;;;34.10;18.08;;;;;;;4.43;100.00;101849.25;5024966;28;20097;-70
2023/01/04 08:01:30;;;;;;;33.33;19.00;;;;;;;4.51;100.00;101861.31;5018316;28;20009;-69
2023/01/04 08:03:56;;;;;;;29.60;18.90;;;;;;;4.66;100.00;101875.78;5014412;28;20391;-71
2023/01/04 08:06:22;;;;;;;33.33;19.08;;;;;;;4.68;100.00;101858.00;5025193;28;20030;-70
2023/01/04 08:08:48;;;;;;;29.88;18.75;;;;;;;4.79;100.00;101874.41;4998569;28;20025;-69
2023/01/04 08:11:18;;;;;;;31.73;18.38;;;;;;;4.84;100.00;101877.75;5013921;28;20040;-70
2023/01/04 08:13:44;;;;;;;32.50;18.45;;;;;;;4.91;100.00;101875.69;5019196;28;20021;-69
2023/01/04 08:16:30;;;;;;;33.50;19.67;;;;;;;4.93;100.00;101874.69;5019387;28;20044;-68
2023/01/04 08:18:57;;;;;;;32.38;19.63;;;;;;;4.74;100.00;101825.84;5019644;28;20383;-70
2023/01/04 08:21:24;;;;;;;31.90;18.92;;;;;;;5.03;100.00;101876.06;5016937;28;20036;-69
2023/01/04 08:23:50;;;;;;;30.83;18.58;;;;;;;5.01;100.00;101850.47;5006180;28;20030;-70
2023/01/04 08:26:17;;;;;;;29.50;18.33;;;;;;;5.09;100.00;101867.00;5014427;28;20026;-69
2023/01/04 08:28:43;;;;;;;30.80;18.35;;;;;;;5.17;100.00;101857.78;5018941;28;20038;-69
2023/01/04 08:31:12;;;;;;;31.67;18.25;;;;;;;5.14;100.00;101857.03;5013524;28;20467;-68
2023/01/04 08:33:38;;;;;;;32.72;18.35;;;;;;;5.24;100.00;101847.72;5012524;28;20505;-69
2023/01/04 08:36:18;;;;;;;29.55;17.85;;;;;;;5.31;100.00;101849.19;5020200;28;20029;-70
2023/01/04 08:38:47;;;;;;;28.13;18.27;;;;;;;5.34;100.00;101834.00;5024089;28;20061;-69
2023/01/04 08:41:14;;;;;;;30.30;16.65;;;;;;;5.40;100.00;101854.13;5023808;28;20029;-70
2023/01/04 08:43:39;;;;;;;28.05;17.58;;;;;;;5.42;100.00;101837.16;5017577;28;20080;-70
2023/01/04 08:46:05;;;;;;;27.73;16.30;;;;;;;5.49;100.00;101853.75;5022125;28;20487;-70
2023/01/04 08:48:32;;;;;;;29.33;17.65;;;;;;;5.59;100.00;101855.97;5023724;28;20121;-70
2023/01/04 08:51:03;;;;;;;30.35;17.15;;;;;;;5.68;100.00;101849.38;5025028;28;20061;-71
2023/01/04 08:53:29;;;;;;;26.38;15.90;;;;;;;5.70;100.00;101848.38;5022369;28;20088;-71
2023/01/04 08:55:55;;;;;;;27.48;17.63;;;;;;;5.58;100.00;101824.94;5009099;28;20022;-69
2023/01/04 08:58:22;;;;;;;26.48;16.95;;;;;;;5.69;100.00;101846.66;5015915;28;20017;-70
2023/01/04 09:00:47;;;;;;;25.85;15.98;;;;;;;5.71;100.00;101841.25;5005086;28;20132;-70
2023/01/04 09:03:13;;;;;;;27.83;17.08;;;;;;;5.66;100.00;101805.97;5022319;28;20139;-70
2023/01/04 09:05:39;;;;;;;26.63;16.83;;;;;;;5.89;100.00;101814.72;5016311;28;20063;-70
2023/01/04 09:08:04;;;;;;;28.45;16.92;;;;;;;6.01;100.00;101826.63;5020894;28;20069;-71
2023/01/04 09:10:30;;;;;;;24.67;15.25;;;;;;;6.10;100.00;101824.38;5013902;28;20029;-70
2023/01/04 09:12:55;;;;;;;23.50;14.85;;;;;;;6.25;100.00;101837.03;5021720;28;20029;-70
2023/01/04 09:15:21;;;;;;;27.33;15.00;;;;;;;6.22;100.00;101821.16;5016690;28;20025;-70
2023/01/04 09:17:48;;;;;;;25.20;15.15;;;;;;;6.25;100.00;101806.84;5028286;28;20037;-70
2023/01/04 09:20:14;;;;;;;25.13;14.73;;;;;;;6.28;100.00;101815.56;5014060;28;20030;-70
2023/01/04 09:22:39;;;;;;;20.52;13.05;;;;;;;6.38;100.00;101829.31;5016633;28;20056;-69
2023/01/04 09:25:05;;;;;;;19.20;12.80;;;;;;;6.52;100.00;101817.06;5024197;28;20478;-70
2023/01/04 09:27:31;;;;;;;22.77;14.18;;;;;;;6.46;100.00;101812.06;5013724;28;20029;-70
2023/01/04 09:29:57;;;;;;;23.00;13.85;;;;;;;6.57;100.00;101825.72;5021197;28;20030;-69
2023/01/04 09:32:22;;;;;;;21.60;14.07;;;;;;;6.68;100.00;101815.41;5022491;28;20026;-71
2023/01/04 09:34:48;;;;;;;19.33;13.88;;;;;;;6.72;100.00;101813.47;5025557;28;20079;-71
2023/01/04 09:37:14;;;;;;;24.35;14.68;;;;;;;6.87;100.00;101821.56;5015397;28;20022;-71
2023/01/04 09:39:39;;;;;;;23.65;14.27;;;;;;;6.86;100.00;101805.66;5020226;28;20577;-71
2023/01/04 09:42:21;;;;;;;21.58;12.45;;;;;;;7.06;100.00;101818.88;5024688;28;20037;-70
2023/01/04 09:44:53;;;;;;;23.60;13.25;;;;;;;7.24;100.00;101825.97;5028074;28;20398;-71
2023/01/04 09:47:45;;;;;;;18.33;12.15;;;;;;;7.27;100.00;101824.94;5017326;28;20028;-69
2023/01/04 09:50:23;;;;;;;19.55;12.20;;;;;;;7.27;100.00;101812.47;4997213;28;20551;-70
2023/01/04 09:53:00;;;;;;;20.23;12.45;;;;;;;7.33;100.00;101809.50;5016897;28;20038;-71
2023/01/04 09:55:49;;;;;;;22.85;11.70;;;;;;;7.17;100.00;101771.19;4996803;28;20116;-70
2023/01/04 09:58:26;;;;;;;17.33;11.43;;;;;;;7.45;100.00;101811.53;5012957;28;20159;-70
2023/01/04 10:01:13;;;;;;;18.27;12.18;;;;;;;7.46;100.00;101804.38;5013361;28;20021;-70
2023/01/04 10:03:46;;;;;;;18.35;12.15;;;;;;;7.46;100.00;101807.06;5019480;28;20063;-71
2023/01/04 10:06:14;;;;;;;15.57;9.40;;;;;;;7.64;96.26;101795.44;5026845;28;21385;-71
2023/01/04 10:08:43;;;;;;;16.13;10.57;;;;;;;7.83;93.03;101806.88;5020176;28;20032;-69
2023/01/04 10:11:46;;;;;;;17.58;10.52;;;;;;;7.91;91.97;101797.50;5019527;28;20041;-70
2023/01/04 10:14:20;;;;;;;13.40;8.93;;;;;;;8.08;88.59;101793.91;5014925;28;20021;-68
2023/01/04 10:17:01;;;;;;;13.60;8.20;;;;;;;8.20;86.99;101788.78;5012803;28;20042;-68
2023/01/04 10:19:40;;;;;;;14.25;8.77;;;;;;;8.12;88.44;101784.78;5019101;28;20509;-67
2023/01/04 10:22:26;;;;;;;13.80;8.82;;;;;;;8.16;88.12;101781.03;5023877;28;20045;-69
2023/01/04 10:25:19;;;;;;;13.30;9.05;;;;;;;8.12;89.23;101777.63;5015572;28;20037;-68
2023/01/04 10:28:29;;;;;;;16.92;9.63;;;;;;;8.10;89.75;101776.84;4997347;28;20040;-68
2023/01/04 10:31:20;;;;;;;14.35;9.07;;;;;;;8.09;89.98;101774.28;5002467;28;20479;-68
2023/01/04 10:34:12;;;;;;;13.30;8.32;;;;;;;8.10;89.46;101749.28;5010247;28;20022;-68
2023/01/04 10:36:38;;;;;;;11.32;7.40;;;;;;;8.20;88.90;101759.41;5019470;28;20502;-68
2023/01/04 10:39:14;;;;;;;13.18;8.18;;;;;;;8.23;88.72;101759.25;5023814;28;20025;-67
2023/01/04 10:41:44;;;;;;;15.52;9.57;;;;;;;8.32;87.33;101761.41;5018542;28;20091;-67
2023/01/04 10:44:31;;;;;;;12.70;8.68;;;;;;;8.40;86.28;101755.63;5020084;28;20387;-68
2023/01/04 10:47:04;;;;;;;17.77;9.40;;;;;;;8.44;85.62;101747.34;5019500;28;20036;-69
2023/01/04 10:49:47;;;;;;;12.43;8.07;;;;;;;8.48;85.50;101748.06;5002868;28;20506;-69
2023/01/04 10:52:27;;;;;;;11.90;8.38;;;;;;;8.45;85.23;101724.16;5016329;28;20037;-69
2023/01/04 10:55:05;;;;;;;12.52;7.28;;;;;;;8.47;85.82;101719.56;5013731;28;20029;-69
2023/01/04 10:57:54;;;;;;;14.32;9.43;;;;;;;8.67;84.69;101730.84;5016689;28;20402;-67
2023/01/04 11:00:29;;;;;;;12.07;8.93;;;;;;;8.74;84.23;101726.03;5020197;28;20034;-68
2023/01/04 11:03:03;;;;;;;11.98;8.38;;;;;;;8.84;84.21;101729.91;5015993;28;20033;-68
2023/01/04 11:05:59;;;;;;;11.57;7.60;;;;;;;8.84;84.25;101730.75;5018689;28;20021;-68
2023/01/04 11:09:02;;;;;;;12.95;7.90;;;;;;;9.09;79.74;101720.31;5010415;28;20125;-68
2023/01/04 11:11:41;;;;;;;11.30;6.75;;;;;;;9.20;77.19;101722.38;5015392;28;20033;-69
2023/01/04 11:14:06;;;;;;;10.65;6.53;;;;;;;9.06;78.99;101704.44;5021812;28;20029;-69
2023/01/04 11:16:32;;;;;;;11.05;6.00;;;;;;;9.32;75.20;101711.78;5017269;28;20033;-69
2023/01/04 11:18:58;;;;;;;6.85;4.88;;;;;;;9.38;72.78;101707.00;5017207;28;20083;-68
2023/01/04 11:21:33;;;;;;;7.22;4.97;;;;;;;9.45;70.54;101700.31;5015434;28;20426;-68
2023/01/04 11:24:02;;;;;;;4.93;3.80;;;;;;;9.47;68.85;101691.22;5018466;28;20048;-67
2023/01/04 11:26:34;;;;;;;6.65;3.75;;;;;;;9.43;68.59;101680.81;5012523;28;20035;-69
2023/01/04 11:29:05;;;;;;;6.85;4.53;;;;;;;9.48;69.00;101692.94;4996784;28;20069;-67
2023/01/04 11:31:30;;;;;;;6.97;4.47;;;;;;;9.48;70.19;101692.09;5015740;28;20025;-68
2023/01/04 11:34:01;;;;;;;6.68;4.22;;;;;;;9.44;71.22;101693.25;5012804;28;20038;-68
2023/01/04 11:36:47;;;;;;;7.65;4.30;;;;;;;9.50;69.89;101685.69;5012081;28;20117;-68
2023/01/04 11:39:23;;;;;;;6.88;3.90;;;;;;;9.54;69.40;101687.22;5022513;28;20033;-69
2023/01/04 11:42:03;;;;;;;7.93;4.55;;;;;;;9.62;68.27;101674.22;5025929;28;20069;-68
2023/01/04 11:44:30;;;;;;;5.65;4.00;;;;;;;9.71;66.56;101660.25;5013846;28;20394;-68
2023/01/04 11:47:18;;;;;;;5.03;3.55;;;;;;;9.74;66.83;101652.00;5013555;28;20079;-68
2023/01/04 11:49:43;;;;;;;7.75;4.32;;;;;;;9.83;66.05;101640.72;5001921;28;20029;-67
2023/01/04 11:52:29;;;;;;;5.22;4.03;;;;;;;10.00;66.40;101667.28;5014481;28;20064;-69
2023/01/04 11:54:55;;;;;;;3.00;2.60;;;;;;;10.11;64.40;101661.28;5017445;28;20021;-68
2023/01/04 11:57:20;;;;;;;5.57;3.65;;;;;;;9.97;64.75;101643.38;5015006;28;20022;-68
2023/01/04 12:00:09;;;;;;;6.72;3.63;;;;;;;10.14;64.96;101651.22;5008416;28;20116;-67
2023/01/04 12:02:35;;;;;;;6.70;3.97;;;;;;;10.17;63.72;101648.34;5026585;28;20027;-68
2023/01/04 12:05:00;;;;;;;5.78;4.03;;;;;;;10.07;64.76;101644.53;5017339;28;20034;-68
2023/01/04 12:07:34;;;;;;;6.32;3.30;;;;;;;10.00;65.28;101637.81;5018156;28;20030;-67
2023/01/04 12:10:09;;;;;;;5.22;3.25;;;;;;;10.14;64.66;101636.94;5017962;28;20136;-68